Time;durP1;ratioP1;P1;durP2;ratioP2;P2;SDS_P1;SDS_P2;PMS_P1;PMS_P2;Temp;Humidity;BMP_temperature;BMP_pressure;BME280_temperature;BME280_humidity;BME280_pressure;Samples;Min_cycle;Max_cycle;Signal;HPM_P1;HPM_P2
2021/08/19 00:01:53;;;;;;;0.43;0.30;;;18.40;99.90;;;;;;5153365;27;20446;-60
2021/08/19 00:04:21;;;;;;;0.40;0.22;;;18.40;99.90;;;;;;5152495;27;20413;-59
2021/08/19 00:06:48;;;;;;;0.40;0.20;;;18.50;99.90;;;;;;5153537;27;20835;-59
2021/08/19 00:09:15;;;;;;;0.50;0.30;;;18.60;99.90;;;;;;5153397;27;20434;-60
2021/08/19 00:11:42;;;;;;;0.50;0.30;;;18.80;99.90;;;;;;5155855;27;20421;-62
2021/08/19 00:14:09;;;;;;;0.50;0.30;;;18.90;99.90;;;;;;5155513;27;20404;-59
2021/08/19 00:16:36;;;;;;;0.50;0.30;;;18.90;99.90;;;;;;5154690;27;20516;-59
2021/08/19 00:19:03;;;;;;;0.50;0.30;;;19.00;99.90;;;;;;5154292;27;20416;-59
2021/08/19 00:21:32;;;;;;;0.40;0.20;;;19.00;99.90;;;;;;5156345;27;20486;-59
2021/08/19 00:23:59;;;;;;;0.50;0.30;;;19.00;99.90;;;;;;5154985;27;20439;-59
2021/08/19 00:26:26;;;;;;;0.50;0.30;;;19.00;99.90;;;;;;5156050;27;20429;-60
2021/08/19 00:28:53;;;;;;;0.40;0.30;;;19.10;99.90;;;;;;5153946;27;20435;-59
2021/08/19 00:31:22;;;;;;;1.30;0.20;;;19.20;99.90;;;;;;5154884;27;20417;-59
2021/08/19 00:33:49;;;;;;;0.60;0.50;;;19.30;99.90;;;;;;5154329;27;20711;-59
2021/08/19 00:36:16;;;;;;;0.40;0.23;;;19.30;99.90;;;;;;5153343;27;20416;-59
2021/08/19 00:38:46;;;;;;;0.40;0.20;;;19.30;99.90;;;;;;5153430;27;20405;-60
2021/08/19 00:41:13;;;;;;;1.10;0.30;;;19.30;99.90;;;;;;5153406;27;20421;-60
2021/08/19 00:43:40;;;;;;;0.50;0.30;;;19.30;99.90;;;;;;5154890;27;20413;-60
2021/08/19 00:46:25;;;;;;;1.10;0.30;;;19.30;99.90;;;;;;5154589;27;20424;-60
2021/08/19 00:48:52;;;;;;;0.60;0.30;;;19.20;99.90;;;;;;5155416;27;20423;-60
2021/08/19 00:51:19;;;;;;;0.40;0.20;;;19.10;99.90;;;;;;5156459;27;20421;-60
2021/08/19 00:53:47;;;;;;;0.40;0.20;;;18.80;99.90;;;;;;5155907;27;20417;-60
2021/08/19 00:56:14;;;;;;;0.57;0.20;;;18.60;99.90;;;;;;5156832;27;20503;-60
2021/08/19 00:58:42;;;;;;;1.20;0.20;;;18.50;99.90;;;;;;5156567;27;20824;-60
2021/08/19 01:01:10;;;;;;;0.40;0.20;;;18.50;99.90;;;;;;5156097;27;20428;-60
2021/08/19 01:03:38;;;;;;;0.40;0.20;;;18.60;99.90;;;;;;5156365;27;20415;-60
2021/08/19 01:06:05;;;;;;;0.40;0.20;;;18.60;99.90;;;;;;5157082;27;20433;-60
2021/08/19 01:08:34;;;;;;;0.50;0.30;;;18.50;99.90;;;;;;5159467;27;20417;-60
2021/08/19 01:11:04;;;;;;;0.50;0.30;;;18.70;99.90;;;;;;5159053;27;20452;-60
2021/08/19 01:13:33;;;;;;;0.40;0.20;;;18.80;99.90;;;;;;5158396;27;20453;-60
2021/08/19 01:16:01;;;;;;;0.40;0.30;;;18.90;99.90;;;;;;5159157;27;20709;-60
2021/08/19 01:18:39;;;;;;;0.47;0.20;;;18.70;99.90;;;;;;5158879;27;20412;-60
2021/08/19 01:21:06;;;;;;;0.90;0.30;;;18.50;99.90;;;;;;5158909;27;20527;-60
2021/08/19 01:23:33;;;;;;;0.50;0.30;;;18.40;99.90;;;;;;5159744;27;20834;-60
2021/08/19 01:26:07;;;;;;;0.70;0.30;;;18.40;99.90;;;;;;5159260;27;20521;-60
2021/08/19 01:28:35;;;;;;;0.40;0.20;;;18.40;99.90;;;;;;5159786;27;20413;-60
2021/08/19 01:31:02;;;;;;;0.40;0.20;;;18.40;99.90;;;;;;5159730;27;20420;-60
2021/08/19 01:33:30;;;;;;;0.40;0.30;;;18.30;99.90;;;;;;5159070;27;20416;-60
2021/08/19 01:35:57;;;;;;;0.50;0.25;;;18.40;99.90;;;;;;5159416;27;20415;-60
2021/08/19 01:38:30;;;;;;;0.60;0.30;;;18.50;99.90;;;;;;5159105;27;20417;-60
2021/08/19 01:40:57;;;;;;;0.45;0.30;;;18.70;99.90;;;;;;5159494;27;20413;-60
2021/08/19 01:43:24;;;;;;;0.40;0.28;;;18.80;99.90;;;;;;5159523;27;20421;-60
2021/08/19 01:45:54;;;;;;;0.70;0.30;;;18.90;99.90;;;;;;5159577;27;20539;-60
2021/08/19 01:48:21;;;;;;;0.40;0.20;;;18.80;99.90;;;;;;5159266;27;20423;-60
2021/08/19 01:50:49;;;;;;;0.40;0.20;;;18.80;99.90;;;;;;5159080;27;20409;-60
2021/08/19 01:53:15;;;;;;;0.40;0.25;;;18.80;99.90;;;;;;5159077;27;20419;-60
2021/08/19 01:55:42;;;;;;;0.40;0.20;;;18.80;99.90;;;;;;5158592;27;20417;-60
2021/08/19 01:58:10;;;;;;;0.40;0.30;;;18.60;99.90;;;;;;5158632;27;20470;-60
2021/08/19 02:00:37;;;;;;;0.40;0.20;;;18.50;99.90;;;;;;5159202;27;20429;-60
2021/08/19 02:03:05;;;;;;;0.50;0.30;;;18.50;99.90;;;;;;5159164;27;20496;-60
2021/08/19 02:05:33;;;;;;;0.40;0.30;;;18.50;99.90;;;;;;5158501;27;20429;-60
2021/08/19 02:08:01;;;;;;;0.40;0.20;;;18.50;99.90;;;;;;5159006;27;20419;-61
2021/08/19 02:10:28;;;;;;;0.50;0.30;;;18.60;99.90;;;;;;5159298;27;20435;-60
2021/08/19 02:12:55;;;;;;;0.40;0.20;;;18.50;99.90;;;;;;5159209;27;20421;-60
2021/08/19 02:15:22;;;;;;;0.80;0.30;;;18.40;99.90;;;;;;5158239;27;20508;-60
2021/08/19 02:17:48;;;;;;;0.47;0.30;;;18.30;99.90;;;;;;5157944;27;20499;-61
2021/08/19 02:20:17;;;;;;;0.40;0.20;;;18.40;99.90;;;;;;5158621;27;20417;-60
2021/08/19 02:22:44;;;;;;;0.40;0.20;;;18.40;99.90;;;;;;5159049;27;20723;-60
2021/08/19 02:25:12;;;;;;;0.40;0.20;;;18.40;99.90;;;;;;5157614;27;20420;-60
2021/08/19 02:27:38;;;;;;;0.38;0.20;;;18.40;99.90;;;;;;5158306;27;20832;-60
2021/08/19 02:30:06;;;;;;;0.32;0.20;;;18.40;99.90;;;;;;5158576;27;20431;-60
2021/08/19 02:32:33;;;;;;;0.70;0.20;;;18.60;99.90;;;;;;5158630;27;20720;-60
2021/08/19 02:35:00;;;;;;;0.70;0.30;;;18.60;99.90;;;;;;5158102;27;20448;-60
2021/08/19 02:37:29;;;;;;;0.50;0.20;;;18.50;99.90;;;;;;5158604;27;20778;-60
2021/08/19 02:39:56;;;;;;;0.37;0.20;;;18.50;99.90;;;;;;5158425;27;20515;-60
2021/08/19 02:42:23;;;;;;;0.50;0.30;;;18.70;99.90;;;;;;5158189;27;20769;-59
2021/08/19 02:44:50;;;;;;;0.50;0.30;;;18.80;99.90;;;;;;5157817;27;20413;-59
2021/08/19 02:47:16;;;;;;;0.57;0.28;;;18.80;99.90;;;;;;5158309;27;20435;-60
2021/08/19 02:49:44;;;;;;;0.30;0.20;;;18.80;99.90;;;;;;5157951;27;20508;-60
2021/08/19 02:52:10;;;;;;;0.50;0.30;;;18.80;99.90;;;;;;5157955;27;20489;-60
2021/08/19 02:54:39;;;;;;;0.40;0.20;;;18.80;99.90;;;;;;5157861;27;20409;-60
2021/08/19 02:57:05;;;;;;;0.40;0.20;;;18.80;99.90;;;;;;5158046;27;20417;-61
2021/08/19 02:59:32;;;;;;;1.30;0.20;;;18.70;99.90;;;;;;5157498;27;20413;-60
2021/08/19 03:01:59;;;;;;;0.60;0.30;;;18.70;99.90;;;;;;5157878;27;20427;-61
2021/08/19 03:04:26;;;;;;;0.50;0.30;;;18.70;99.90;;;;;;5156152;27;20408;-60
2021/08/19 03:06:53;;;;;;;0.40;0.22;;;18.50;99.90;;;;;;5155834;27;20432;-60
2021/08/19 03:09:20;;;;;;;0.50;0.30;;;18.60;99.90;;;;;;5156003;27;20419;-61
2021/08/19 03:11:48;;;;;;;0.40;0.20;;;18.60;99.90;;;;;;5156014;27;20425;-60
2021/08/19 03:14:15;;;;;;;0.60;0.30;;;18.60;99.90;;;;;;5156349;27;20716;-60
2021/08/19 03:16:42;;;;;;;0.40;0.25;;;18.40;99.90;;;;;;5156018;27;20412;-60
2021/08/19 03:19:09;;;;;;;0.50;0.30;;;18.20;99.90;;;;;;5156585;27;20412;-60
2021/08/19 03:21:36;;;;;;;0.40;0.20;;;18.20;99.90;;;;;;5157601;27;20847;-60
2021/08/19 03:24:04;;;;;;;0.50;0.30;;;18.20;99.90;;;;;;5157048;27;20473;-61
2021/08/19 03:26:31;;;;;;;0.50;0.30;;;18.30;99.90;;;;;;5157279;27;20435;-60
2021/08/19 03:29:00;;;;;;;0.40;0.30;;;18.40;99.90;;;;;;5156779;27;20420;-60
2021/08/19 03:31:27;;;;;;;0.50;0.30;;;18.50;99.90;;;;;;5157630;27;20469;-60
2021/08/19 03:33:54;;;;;;;0.40;0.30;;;18.50;99.90;;;;;;5155272;27;20691;-60
2021/08/19 03:36:22;;;;;;;0.60;0.30;;;18.30;99.90;;;;;;5155765;27;20867;-60
2021/08/19 03:38:49;;;;;;;0.50;0.32;;;18.40;99.90;;;;;;5155268;27;20844;-60
2021/08/19 03:41:16;;;;;;;0.50;0.30;;;18.40;99.90;;;;;;5155752;27;20421;-60
2021/08/19 03:43:44;;;;;;;1.60;0.30;;;18.40;99.90;;;;;;5155590;27;20697;-60
2021/08/19 03:46:12;;;;;;;0.40;0.30;;;18.30;99.90;;;;;;5155295;27;20462;-60
2021/08/19 03:48:39;;;;;;;0.50;0.30;;;18.20;99.90;;;;;;5155898;27;20413;-60
2021/08/19 03:51:07;;;;;;;0.50;0.30;;;18.10;99.90;;;;;;5155891;27;20697;-60
2021/08/19 03:53:35;;;;;;;0.40;0.28;;;18.10;99.90;;;;;;5156547;27;20427;-60
2021/08/19 03:56:02;;;;;;;0.40;0.30;;;18.20;99.90;;;;;;5155958;27;20451;-61
2021/08/19 03:58:29;;;;;;;0.70;0.30;;;18.30;99.90;;;;;;5156614;27;20496;-60
2021/08/19 04:00:56;;;;;;;0.50;0.30;;;18.50;99.90;;;;;;5155213;27;20455;-61
2021/08/19 04:03:24;;;;;;;0.40;0.30;;;18.70;99.90;;;;;;5155221;27;20419;-60
2021/08/19 04:05:51;;;;;;;0.50;0.30;;;18.70;99.90;;;;;;5155454;27;20899;-61
2021/08/19 04:08:18;;;;;;;1.10;0.30;;;18.70;99.90;;;;;;5155616;27;20419;-60
2021/08/19 04:10:45;;;;;;;0.50;0.30;;;18.70;99.90;;;;;;5154719;27;20416;-60
2021/08/19 04:13:13;;;;;;;1.60;0.30;;;18.60;99.90;;;;;;5155480;27;20475;-61
2021/08/19 04:15:40;;;;;;;0.50;0.30;;;18.50;99.90;;;;;;5156136;27;20704;-60
2021/08/19 04:18:07;;;;;;;0.50;0.30;;;18.60;99.90;;;;;;5156705;27;20871;-60
2021/08/19 04:20:35;;;;;;;1.00;0.30;;;18.30;99.90;;;;;;5155046;27;20416;-60
2021/08/19 04:23:02;;;;;;;0.50;0.40;;;18.30;99.90;;;;;;5154305;27;20419;-60
2021/08/19 04:25:29;;;;;;;0.50;0.30;;;18.40;99.90;;;;;;5153764;27;20503;-59
2021/08/19 04:27:56;;;;;;;0.70;0.40;;;18.40;99.90;;;;;;5153826;27;20543;-60
2021/08/19 04:30:23;;;;;;;0.50;0.30;;;18.30;99.90;;;;;;5152896;27;20425;-61
2021/08/19 04:32:49;;;;;;;0.50;0.30;;;18.40;99.90;;;;;;5153317;27;20412;-60
2021/08/19 04:35:17;;;;;;;0.50;0.30;;;18.40;99.90;;;;;;5152954;27;20778;-60
2021/08/19 04:37:45;;;;;;;0.80;0.40;;;18.50;99.90;;;;;;5153352;27;20832;-60
2021/08/19 04:40:12;;;;;;;0.40;0.22;;;18.40;99.90;;;;;;5154483;27;20417;-60
2021/08/19 04:42:39;;;;;;;0.50;0.30;;;18.40;99.90;;;;;;5158601;27;20431;-60
2021/08/19 04:45:08;;;;;;;0.73;0.30;;;18.60;99.90;;;;;;5158975;27;20415;-60
2021/08/19 04:47:35;;;;;;;0.50;0.30;;;18.70;99.90;;;;;;5158345;27;20697;-60
2021/08/19 04:50:02;;;;;;;0.40;0.30;;;18.50;99.90;;;;;;5157877;27;20412;-60
2021/08/19 04:52:29;;;;;;;0.40;0.30;;;18.40;99.90;;;;;;5158546;27;20424;-61
2021/08/19 04:54:57;;;;;;;0.50;0.30;;;18.20;99.90;;;;;;5158146;27;20428;-60
2021/08/19 04:57:24;;;;;;;0.50;0.30;;;18.00;99.90;;;;;;5158344;27;20854;-60
2021/08/19 04:59:51;;;;;;;0.40;0.30;;;17.80;99.90;;;;;;5158886;27;20419;-60
2021/08/19 05:02:17;;;;;;;0.60;0.30;;;17.70;99.90;;;;;;5158715;27;20427;-60
2021/08/19 05:04:45;;;;;;;0.90;0.30;;;17.80;99.90;;;;;;5158574;27;20412;-60
2021/08/19 05:07:12;;;;;;;0.90;0.30;;;17.80;99.90;;;;;;5158381;27;20428;-61
2021/08/19 05:09:38;;;;;;;0.40;0.20;;;17.90;99.90;;;;;;5159187;27;20414;-61
2021/08/19 05:12:07;;;;;;;0.60;0.30;;;17.80;99.90;;;;;;5159444;27;20532;-60
2021/08/19 05:14:38;;;;;;;0.50;0.30;;;17.80;99.90;;;;;;5157917;27;20626;-60
2021/08/19 05:17:05;;;;;;;0.80;0.30;;;17.80;99.90;;;;;;5153994;27;20769;-59
2021/08/19 05:19:33;;;;;;;0.50;0.30;;;17.90;99.90;;;;;;5158665;27;20417;-58
2021/08/19 05:22:00;;;;;;;0.50;0.30;;;17.90;99.90;;;;;;5150310;27;20773;-60
2021/08/19 05:24:27;;;;;;;0.50;0.20;;;18.00;99.90;;;;;;5160020;27;20719;-60
2021/08/19 05:26:53;;;;;;;0.50;0.30;;;18.00;99.90;;;;;;5159452;27;20431;-60
2021/08/19 05:29:22;;;;;;;0.57;0.30;;;17.90;99.90;;;;;;5159171;27;20419;-60
2021/08/19 05:31:51;;;;;;;0.50;0.30;;;17.90;99.90;;;;;;5159297;27;20425;-59
2021/08/19 05:34:18;;;;;;;0.50;0.30;;;18.00;99.90;;;;;;5159775;27;20820;-60
2021/08/19 05:36:45;;;;;;;0.50;0.30;;;18.10;99.90;;;;;;5158053;27;20409;-59
2021/08/19 05:39:12;;;;;;;0.50;0.30;;;18.50;99.90;;;;;;5157846;27;20448;-59
2021/08/19 05:41:39;;;;;;;0.50;0.30;;;18.70;99.90;;;;;;5157638;27;20525;-60
2021/08/19 05:44:06;;;;;;;0.45;0.30;;;19.00;99.90;;;;;;5158214;27;20669;-59
2021/08/19 05:46:34;;;;;;;0.40;0.30;;;19.20;99.90;;;;;;5156774;27;20723;-59
2021/08/19 05:49:01;;;;;;;0.80;0.30;;;19.20;99.90;;;;;;5156735;27;20444;-58
2021/08/19 05:51:28;;;;;;;0.50;0.20;;;19.40;99.90;;;;;;5156225;27;20463;-59
2021/08/19 05:53:55;;;;;;;0.50;0.30;;;19.50;99.90;;;;;;5157464;27;20416;-59
2021/08/19 05:56:22;;;;;;;0.40;0.28;;;19.60;99.90;;;;;;5157740;27;20430;-58
2021/08/19 05:58:49;;;;;;;0.50;0.30;;;19.70;99.90;;;;;;5157962;27;20416;-58
2021/08/19 06:01:16;;;;;;;0.50;0.30;;;19.70;99.90;;;;;;5137893;27;20725;-58
2021/08/19 06:03:46;;;;;;;0.50;0.30;;;19.50;99.90;;;;;;5136965;27;21055;-57
2021/08/19 06:06:13;;;;;;;0.40;0.30;;;19.30;99.90;;;;;;5136150;27;20418;-58
2021/08/19 06:08:40;;;;;;;0.80;0.30;;;19.30;99.90;;;;;;5137496;27;20427;-58
2021/08/19 06:11:07;;;;;;;1.00;0.40;;;19.50;99.90;;;;;;5137872;27;20821;-58
2021/08/19 06:13:34;;;;;;;1.57;0.30;;;19.50;99.90;;;;;;5137402;27;20815;-58
2021/08/19 06:16:01;;;;;;;0.70;0.30;;;19.50;99.90;;;;;;5137254;27;20438;-58
2021/08/19 06:18:28;;;;;;;0.50;0.30;;;19.40;99.90;;;;;;5135894;27;20431;-58
2021/08/19 06:20:56;;;;;;;0.45;0.30;;;19.20;99.90;;;;;;5139610;27;20872;-58
2021/08/19 06:23:23;;;;;;;0.70;0.30;;;19.20;99.90;;;;;;5137079;27;20786;-58
2021/08/19 06:25:49;;;;;;;0.40;0.20;;;19.40;99.90;;;;;;5134606;27;20414;-58
2021/08/19 06:28:23;;;;;;;0.50;0.30;;;19.40;99.90;;;;;;5147426;27;20432;-57
2021/08/19 06:30:50;;;;;;;0.70;0.30;;;19.30;99.90;;;;;;5155344;27;20443;-56
2021/08/19 06:33:17;;;;;;;0.57;0.30;;;19.20;99.90;;;;;;5155206;27;20416;-58
2021/08/19 06:35:44;;;;;;;0.50;0.30;;;19.30;99.90;;;;;;5156068;27;20460;-57
2021/08/19 06:38:14;;;;;;;0.40;0.25;;;19.50;99.90;;;;;;5156660;27;20514;-57
2021/08/19 06:40:41;;;;;;;0.90;0.30;;;19.80;99.90;;;;;;5153954;27;20413;-57
2021/08/19 06:43:08;;;;;;;2.80;1.95;;;20.10;99.90;;;;;;5154770;27;20427;-57
2021/08/19 06:45:35;;;;;;;1.90;1.15;;;20.20;99.90;;;;;;5135353;27;20414;-57
2021/08/19 06:48:02;;;;;;;0.43;0.30;;;20.30;99.90;;;;;;5136407;27;20469;-57
2021/08/19 06:50:28;;;;;;;0.60;0.30;;;20.40;99.90;;;;;;5135480;27;20920;-57
2021/08/19 06:52:55;;;;;;;0.70;0.30;;;20.50;99.90;;;;;;5156029;27;20509;-60
2021/08/19 06:55:24;;;;;;;0.47;0.30;;;20.50;99.90;;;;;;5155272;27;20413;-60
2021/08/19 06:57:51;;;;;;;0.73;0.30;;;20.30;99.90;;;;;;5153650;27;20445;-61
2021/08/19 07:00:18;;;;;;;0.40;0.20;;;20.20;99.90;;;;;;5152360;27;20705;-60
2021/08/19 07:02:45;;;;;;;0.50;0.30;;;20.20;99.90;;;;;;5152661;27;20720;-60
2021/08/19 07:05:12;;;;;;;0.50;0.30;;;20.10;99.90;;;;;;5150169;27;20423;-60
2021/08/19 07:07:39;;;;;;;0.50;0.30;;;20.10;99.90;;;;;;5149675;27;20533;-58
2021/08/19 07:10:08;;;;;;;1.10;0.30;;;20.20;99.90;;;;;;5152690;27;20789;-58
2021/08/19 07:12:37;;;;;;;0.50;0.30;;;20.10;99.90;;;;;;5150851;27;20449;-59
2021/08/19 07:15:04;;;;;;;0.50;0.20;;;20.10;99.90;;;;;;5130490;27;20879;-58
2021/08/19 07:17:31;;;;;;;0.50;0.32;;;20.10;99.90;;;;;;5128849;27;20425;-58
2021/08/19 07:19:58;;;;;;;0.40;0.20;;;20.20;99.90;;;;;;5131523;27;20499;-58
2021/08/19 07:22:26;;;;;;;0.50;0.30;;;20.10;99.90;;;;;;5133527;27;20430;-58
2021/08/19 07:24:53;;;;;;;0.40;0.20;;;20.00;99.90;;;;;;5154367;27;20413;-58
2021/08/19 07:27:19;;;;;;;1.00;0.30;;;20.10;99.90;;;;;;5153414;27;20447;-58
2021/08/19 07:29:47;;;;;;;0.50;0.20;;;20.30;99.90;;;;;;5152167;27;20512;-59
2021/08/19 07:32:19;;;;;;;0.50;0.30;;;20.50;99.90;;;;;;5153163;27;20879;-59
2021/08/19 07:34:46;;;;;;;0.40;0.30;;;20.40;99.90;;;;;;5153326;27;20728;-58
2021/08/19 07:37:12;;;;;;;0.60;0.20;;;20.50;99.90;;;;;;5155125;27;20423;-58
2021/08/19 07:39:40;;;;;;;0.60;0.30;;;20.60;99.90;;;;;;5155353;27;20413;-58
2021/08/19 07:42:07;;;;;;;0.50;0.30;;;20.90;99.90;;;;;;5154721;27;20423;-58
2021/08/19 07:44:34;;;;;;;0.80;0.30;;;21.00;99.90;;;;;;5154510;27;20824;-59
2021/08/19 07:47:02;;;;;;;0.50;0.20;;;21.20;99.90;;;;;;5154162;27;20724;-59
2021/08/19 07:49:29;;;;;;;1.33;0.28;;;21.20;99.90;;;;;;5154471;27;20508;-59
2021/08/19 07:51:56;;;;;;;0.50;0.30;;;21.20;99.90;;;;;;5161007;27;20604;-59
2021/08/19 07:54:22;;;;;;;0.80;0.20;;;21.30;99.90;;;;;;5157535;27;20417;-59
2021/08/19 07:56:49;;;;;;;0.40;0.20;;;21.50;99.90;;;;;;5154173;27;20417;-60
2021/08/19 07:59:17;;;;;;;0.40;0.30;;;21.60;99.90;;;;;;5153943;27;20712;-59
2021/08/19 08:01:43;;;;;;;0.40;0.30;;;21.60;99.90;;;;;;5154038;27;20416;-59
2021/08/19 08:04:12;;;;;;;0.90;0.30;;;21.50;99.90;;;;;;5153843;27;20491;-60
2021/08/19 08:06:40;;;;;;;0.40;0.30;;;21.20;99.90;;;;;;5153940;27;20516;-59
2021/08/19 08:09:08;;;;;;;0.60;0.30;;;21.10;99.90;;;;;;5152525;27;20420;-59
2021/08/19 08:11:35;;;;;;;0.80;0.30;;;21.10;99.90;;;;;;5154502;27;20477;-59
2021/08/19 08:14:02;;;;;;;0.50;0.30;;;21.30;99.90;;;;;;5153909;27;20404;-58
2021/08/19 08:16:29;;;;;;;1.10;0.30;;;21.20;99.90;;;;;;5154523;27;20412;-58
2021/08/19 08:18:56;;;;;;;0.47;0.30;;;21.40;99.90;;;;;;5157932;27;20697;-57
2021/08/19 08:21:25;;;;;;;0.50;0.30;;;21.60;99.90;;;;;;5157491;27;20866;-58
2021/08/19 08:23:53;;;;;;;0.47;0.30;;;21.30;99.90;;;;;;5158543;27;20417;-59
2021/08/19 08:26:20;;;;;;;0.50;0.20;;;21.50;99.90;;;;;;5158408;27;20881;-58
2021/08/19 08:28:50;;;;;;;0.60;0.30;;;21.60;99.90;;;;;;5158803;27;20670;-59
2021/08/19 08:31:17;;;;;;;0.40;0.30;;;21.70;99.90;;;;;;5157146;27;20477;-58
2021/08/19 08:33:45;;;;;;;0.40;0.20;;;21.80;99.90;;;;;;5157017;27;20523;-59
2021/08/19 08:36:12;;;;;;;0.50;0.30;;;21.60;99.90;;;;;;5158331;27;20439;-58
2021/08/19 08:38:40;;;;;;;0.57;0.30;;;21.60;99.90;;;;;;5157498;27;20447;-59
2021/08/19 08:41:08;;;;;;;0.45;0.30;;;21.60;99.90;;;;;;5156729;27;20427;-58
2021/08/19 08:43:37;;;;;;;0.50;0.30;;;21.70;99.90;;;;;;5156873;27;20417;-58
2021/08/19 08:46:07;;;;;;;0.50;0.30;;;21.60;99.90;;;;;;5155716;27;20428;-59
2021/08/19 08:48:36;;;;;;;1.30;0.30;;;21.50;99.90;;;;;;5158806;27;20424;-58
2021/08/19 08:51:03;;;;;;;0.40;0.28;;;21.60;99.90;;;;;;5156331;27;20843;-59
2021/08/19 08:53:30;;;;;;;0.50;0.30;;;21.70;99.90;;;;;;5157266;27;20802;-58
2021/08/19 08:55:58;;;;;;;0.50;0.25;;;22.00;99.90;;;;;;5158669;27;20418;-58
2021/08/19 08:58:25;;;;;;;0.40;0.20;;;22.20;99.90;;;;;;5157755;27;20776;-58
2021/08/19 09:00:52;;;;;;;0.60;0.40;;;22.40;99.90;;;;;;5149750;27;20447;-58
2021/08/19 09:03:21;;;;;;;0.60;0.40;;;22.40;99.90;;;;;;5156931;27;20728;-58
2021/08/19 09:05:50;;;;;;;0.45;0.30;;;22.40;99.90;;;;;;5158487;27;20420;-59
2021/08/19 09:08:19;;;;;;;0.50;0.30;;;22.20;99.90;;;;;;5158094;27;20537;-59
2021/08/19 09:10:47;;;;;;;0.40;0.30;;;21.90;99.90;;;;;;5158688;27;20499;-61
2021/08/19 09:13:17;;;;;;;0.90;0.30;;;21.70;99.90;;;;;;5158652;27;20416;-58
2021/08/19 09:15:46;;;;;;;0.50;0.30;;;21.60;99.90;;;;;;5158466;27;20469;-58
2021/08/19 09:18:27;;;;;;;0.60;0.30;;;21.50;99.90;;;;;;5146994;27;20438;-58
2021/08/19 09:20:54;;;;;;;0.50;0.30;;;21.10;99.90;;;;;;5141451;27;20685;-58
2021/08/19 09:23:21;;;;;;;0.60;0.30;;;21.30;99.90;;;;;;5145640;27;20415;-58
2021/08/19 09:25:48;;;;;;;0.50;0.30;;;21.40;99.90;;;;;;5138145;27;20414;-58
2021/08/19 09:28:19;;;;;;;0.50;0.30;;;21.60;99.90;;;;;;5136216;27;20745;-58
2021/08/19 09:30:48;;;;;;;0.50;0.30;;;21.90;99.90;;;;;;5136018;27;20414;-57
2021/08/19 09:33:17;;;;;;;0.90;0.40;;;22.20;99.90;;;;;;5136893;27;20418;-58
2021/08/19 09:35:44;;;;;;;0.60;0.40;;;22.40;99.90;;;;;;5136811;27;20399;-58
2021/08/19 09:38:13;;;;;;;1.10;0.30;;;22.50;99.90;;;;;;5135778;27;20418;-58
2021/08/19 09:40:41;;;;;;;0.70;0.30;;;22.20;99.90;;;;;;5136051;27;20414;-58
2021/08/19 09:43:08;;;;;;;0.40;0.20;;;22.10;99.90;;;;;;5134635;27;20410;-58
2021/08/19 09:45:45;;;;;;;0.40;0.20;;;22.10;99.90;;;;;;5135508;27;20826;-58
2021/08/19 09:48:14;;;;;;;0.60;0.30;;;22.30;99.90;;;;;;5135665;27;20433;-58
2021/08/19 09:50:43;;;;;;;0.50;0.30;;;22.30;99.90;;;;;;5134599;27;20418;-58
2021/08/19 09:53:22;;;;;;;0.60;0.30;;;22.10;99.90;;;;;;5137274;27;20415;-57
2021/08/19 09:55:50;;;;;;;0.50;0.20;;;22.10;99.90;;;;;;5136080;27;20827;-57
2021/08/19 09:58:33;;;;;;;0.40;0.20;;;22.10;99.90;;;;;;5136266;27;20954;-57
2021/08/19 10:01:02;;;;;;;0.50;0.30;;;22.20;99.90;;;;;;5133817;27;20858;-57
2021/08/19 10:03:30;;;;;;;0.50;0.20;;;22.70;99.90;;;;;;5134605;27;20474;-57
2021/08/19 10:05:57;;;;;;;0.40;0.20;;;23.00;99.90;;;;;;5133207;27;20430;-58
2021/08/19 10:08:24;;;;;;;0.40;0.23;;;23.20;99.90;;;;;;5137902;27;20893;-58
2021/08/19 10:10:55;;;;;;;0.40;0.30;;;23.20;99.90;;;;;;5153877;27;20428;-58
2021/08/19 10:13:22;;;;;;;0.50;0.20;;;23.20;99.90;;;;;;5154071;27;20492;-57
2021/08/19 10:15:52;;;;;;;0.40;0.20;;;23.10;99.90;;;;;;5154727;27;20443;-58
2021/08/19 10:18:24;;;;;;;0.47;0.20;;;22.80;99.90;;;;;;5152766;27;20417;-58
2021/08/19 10:21:03;;;;;;;0.40;0.20;;;23.10;99.90;;;;;;5152248;27;20431;-58
2021/08/19 10:23:32;;;;;;;0.40;0.20;;;23.50;99.90;;;;;;5154020;27;20858;-58
2021/08/19 10:26:04;;;;;;;0.45;0.20;;;23.50;99.90;;;;;;5150949;27;20423;-58
2021/08/19 10:28:48;;;;;;;0.40;0.20;;;23.30;99.90;;;;;;5134523;27;20471;-59
2021/08/19 10:31:42;;;;;;;0.40;0.20;;;23.50;99.90;;;;;;5133407;27;20473;-58
2021/08/19 10:34:12;;;;;;;0.50;0.30;;;23.60;99.90;;;;;;5133792;27;20420;-58
2021/08/19 10:36:54;;;;;;;0.40;0.20;;;23.70;99.90;;;;;;5151416;27;20484;-59
2021/08/19 10:39:36;;;;;;;0.40;0.20;;;23.90;99.90;;;;;;5155153;27;20443;-60
2021/08/19 10:42:03;;;;;;;0.30;0.15;;;24.00;99.90;;;;;;5155001;27;20566;-57
2021/08/19 10:44:35;;;;;;;0.50;0.20;;;24.00;99.90;;;;;;5155904;27;20905;-57
2021/08/19 10:47:03;;;;;;;0.50;0.20;;;24.10;99.90;;;;;;5156616;27;20428;-58
2021/08/19 10:49:40;;;;;;;0.40;0.20;;;24.00;99.90;;;;;;5152635;27;20425;-57
2021/08/19 10:52:29;;;;;;;0.40;0.20;;;23.70;99.90;;;;;;5115649;27;20596;-58
2021/08/19 10:55:19;;;;;;;0.40;0.20;;;23.60;99.90;;;;;;5113874;28;20427;-58
2021/08/19 10:57:51;;;;;;;0.43;0.20;;;23.70;99.90;;;;;;5130223;27;20433;-58
2021/08/19 11:00:18;;;;;;;0.50;0.20;;;24.00;99.90;;;;;;5139186;27;20491;-58
2021/08/19 11:02:47;;;;;;;0.50;0.20;;;23.90;99.90;;;;;;5144475;27;20420;-58
2021/08/19 11:05:57;;;;;;;0.50;0.28;;;24.00;99.90;;;;;;5154372;27;20408;-58
2021/08/19 11:08:39;;;;;;;0.40;0.30;;;24.10;99.90;;;;;;5154034;27;20746;-58
2021/08/19 11:11:06;;;;;;;0.40;0.20;;;23.70;99.90;;;;;;5154108;27;20462;-58
2021/08/19 11:13:34;;;;;;;0.40;0.20;;;23.30;99.90;;;;;;5153508;27;20821;-58
2021/08/19 11:16:02;;;;;;;0.70;0.20;;;23.10;99.90;;;;;;5152569;27;20437;-58
2021/08/19 11:18:31;;;;;;;0.90;0.20;;;22.70;99.90;;;;;;5153486;27;20427;-58
2021/08/19 11:21:00;;;;;;;0.40;0.20;;;22.80;99.90;;;;;;5152846;27;20428;-58
2021/08/19 11:23:29;;;;;;;0.68;0.22;;;22.90;99.90;;;;;;5153562;27;20413;-58
2021/08/19 11:26:01;;;;;;;0.43;0.22;;;22.90;99.90;;;;;;5153399;27;20425;-58
2021/08/19 11:28:39;;;;;;;0.60;0.30;;;22.90;99.90;;;;;;5151478;27;20842;-57
2021/08/19 11:31:15;;;;;;;0.40;0.20;;;22.80;99.90;;;;;;5152575;27;20906;-58
2021/08/19 11:33:44;;;;;;;0.50;0.30;;;22.70;99.90;;;;;;5153111;27;20416;-61
2021/08/19 11:36:12;;;;;;;0.45;0.20;;;22.80;99.90;;;;;;5153817;27;20420;-58
2021/08/19 11:38:41;;;;;;;0.50;0.30;;;22.80;99.90;;;;;;5153942;27;20419;-58
2021/08/19 11:41:16;;;;;;;0.45;0.30;;;22.70;99.90;;;;;;5152410;27;20723;-58
2021/08/19 11:43:44;;;;;;;0.40;0.20;;;22.70;99.90;;;;;;5154504;27;20412;-58
2021/08/19 11:46:14;;;;;;;0.50;0.30;;;22.80;99.90;;;;;;5153739;27;20430;-58
2021/08/19 11:48:49;;;;;;;0.50;0.20;;;22.80;99.90;;;;;;5149297;27;20984;-59
2021/08/19 11:51:26;;;;;;;0.90;0.30;;;22.60;99.90;;;;;;5132011;27;20513;-59
2021/08/19 11:53:55;;;;;;;0.70;0.30;;;22.80;99.90;;;;;;5133827;27;20420;-58
2021/08/19 11:56:22;;;;;;;1.10;0.20;;;22.90;99.90;;;;;;5132511;27;20436;-58
2021/08/19 11:58:52;;;;;;;2.20;0.40;;;23.30;99.90;;;;;;5133001;27;20471;-58
2021/08/19 12:01:25;;;;;;;0.40;0.20;;;23.60;99.90;;;;;;5131001;27;20427;-58
2021/08/19 12:03:52;;;;;;;0.50;0.20;;;23.70;99.90;;;;;;5133787;27;20426;-57
2021/08/19 12:06:21;;;;;;;0.60;0.30;;;24.00;99.90;;;;;;5153883;27;20475;-57
2021/08/19 12:08:50;;;;;;;0.50;0.20;;;24.00;99.90;;;;;;5152454;27;20473;-58
2021/08/19 12:11:20;;;;;;;0.50;0.30;;;24.00;99.90;;;;;;5151972;27;20606;-60
2021/08/19 12:13:50;;;;;;;0.52;0.30;;;24.20;99.90;;;;;;5151842;27;20400;-61
2021/08/19 12:16:20;;;;;;;0.55;0.30;;;24.60;99.90;;;;;;5152987;27;20416;-60
2021/08/19 12:19:20;;;;;;;0.50;0.30;;;24.50;99.90;;;;;;5151847;27;20405;-60
2021/08/19 12:21:58;;;;;;;1.70;0.30;;;24.30;99.90;;;;;;5143987;27;20464;-61
2021/08/19 12:24:29;;;;;;;0.70;0.30;;;24.50;99.90;;;;;;5129910;28;20457;-61
2021/08/19 12:27:08;;;;;;;0.60;0.30;;;24.50;99.90;;;;;;5130507;28;20422;-60
2021/08/19 12:29:36;;;;;;;1.15;0.30;;;24.50;99.90;;;;;;5129794;28;20514;-60
2021/08/19 12:32:04;;;;;;;0.47;0.20;;;24.30;99.90;;;;;;5130611;28;20429;-60
2021/08/19 12:34:31;;;;;;;0.60;0.30;;;24.50;99.90;;;;;;5130209;28;20414;-60
2021/08/19 12:37:11;;;;;;;0.50;0.30;;;24.30;99.90;;;;;;5132370;28;20845;-60
2021/08/19 12:39:46;;;;;;;0.70;0.40;;;24.20;99.90;;;;;;5134142;28;20420;-60
2021/08/19 12:42:15;;;;;;;0.88;0.40;;;24.40;99.90;;;;;;5131599;28;20492;-60
2021/08/19 12:44:43;;;;;;;0.50;0.30;;;24.50;99.90;;;;;;5132734;28;20447;-59
2021/08/19 12:47:10;;;;;;;0.50;0.30;;;24.00;99.90;;;;;;5131956;28;20853;-60
2021/08/19 12:49:39;;;;;;;0.50;0.30;;;23.70;99.90;;;;;;5133629;28;20483;-60
2021/08/19 12:52:21;;;;;;;0.50;0.30;;;23.50;99.90;;;;;;5134006;28;20521;-60
2021/08/19 12:55:00;;;;;;;0.60;0.30;;;23.70;99.90;;;;;;5132207;28;20433;-60
2021/08/19 12:57:35;;;;;;;0.57;0.40;;;24.00;99.90;;;;;;5131866;28;20458;-60